Time;durP1;ratioP1;P1;durP2;ratioP2;P2;SDS_P1;SDS_P2;PMS_P1;PMS_P2;Temp;Humidity;BMP_temperature;BMP_pressure;BME280_temperature;BME280_humidity;BME280_pressure;Samples;Min_cycle;Max_cycle;Signal;HPM_P1;HPM_P2
2021/12/07 00:00:39;;;;;;;60.55;22.85;;;;;;;;;;8465190;28;20047;-77
2021/12/07 00:04:42;;;;;;;89.15;28.35;;;;;;;;;;8464289;28;20392;-74
2021/12/07 00:08:45;;;;;;;72.00;24.58;;;;;;;;;;8464824;28;20089;-74
2021/12/07 00:12:51;;;;;;;51.83;22.88;;;;;;;;;;8464815;28;20049;-74
2021/12/07 00:16:55;;;;;;;55.15;19.90;;;;;;;;;;8464670;28;20047;-76
2021/12/07 00:20:58;;;;;;;64.40;21.73;;;;;;;;;;8464609;28;20040;-74
2021/12/07 00:25:01;;;;;;;70.20;23.05;;;;;;;;;;8464597;28;20491;-73
2021/12/07 00:29:07;;;;;;;60.20;21.77;;;;;;;;;;8464306;28;20410;-75
2021/12/07 00:33:16;;;;;;;57.03;23.02;;;;;;;;;;8464839;28;20479;-74
2021/12/07 00:37:19;;;;;;;65.22;24.15;;;;;;;;;;8464296;28;20055;-77
2021/12/07 00:41:22;;;;;;;62.30;21.98;;;;;;;;;;8463926;28;20116;-76
2021/12/07 00:45:26;;;;;;;57.92;20.65;;;;;;;;;;8464571;28;20047;-74
2021/12/07 00:49:29;;;;;;;64.03;21.27;;;;;;;;;;8463901;28;20040;-75
2021/12/07 00:53:32;;;;;;;69.88;22.92;;;;;;;;;;8463856;28;20059;-75
2021/12/07 00:57:36;;;;;;;64.00;22.58;;;;;;;;;;8463908;28;20052;-76
2021/12/07 01:01:40;;;;;;;68.57;23.17;;;;;;;;;;8463788;28;20495;-75
2021/12/07 01:05:48;;;;;;;67.28;23.00;;;;;;;;;;8464155;28;20438;-74
2021/12/07 01:27:14;;;;;;;80.13;24.65;;;;;;;;;;8437025;28;20054;-74
2021/12/07 01:31:22;;;;;;;129.35;34.85;;;;;;;;;;8436263;28;20058;-74
2021/12/07 01:35:54;;;;;;;93.65;27.67;;;;;;;;;;8436207;28;20055;-76
2021/12/07 01:44:37;;;;;;;80.72;23.02;;;;;;;;;;8436038;28;20051;-74
2021/12/07 01:57:46;;;;;;;109.28;32.70;;;;;;;;;;8435621;28;20051;-73
2021/12/07 02:02:02;;;;;;;92.00;25.50;;;;;;;;;;8435345;28;20044;-74
2021/12/07 02:06:04;;;;;;;99.47;27.88;;;;;;;;;;8435177;28;20068;-77
2021/12/07 02:10:16;;;;;;;88.32;24.30;;;;;;;;;;8435505;28;20616;-74
2021/12/07 02:14:19;;;;;;;99.22;27.35;;;;;;;;;;8434973;28;20081;-77
2021/12/07 02:18:22;;;;;;;95.70;25.38;;;;;;;;;;8437936;28;20096;-74
2021/12/07 02:22:26;;;;;;;67.05;22.63;;;;;;;;;;8455772;28;20047;-75
2021/12/07 02:26:30;;;;;;;66.38;19.70;;;;;;;;;;8452089;28;20040;-75
2021/12/07 02:30:32;;;;;;;59.13;19.05;;;;;;;;;;8450257;28;20407;-75
2021/12/07 02:34:42;;;;;;;64.88;23.38;;;;;;;;;;8465067;28;20066;-76
2021/12/07 02:38:46;;;;;;;55.08;19.33;;;;;;;;;;8465527;28;20077;-75
2021/12/07 02:42:50;;;;;;;44.65;17.40;;;;;;;;;;8457696;28;20491;-75
2021/12/07 02:46:53;;;;;;;46.90;18.15;;;;;;;;;;8456020;28;20113;-76
2021/12/07 02:50:56;;;;;;;50.67;18.30;;;;;;;;;;8458450;28;20051;-76
2021/12/07 02:55:00;;;;;;;48.65;18.83;;;;;;;;;;8463154;28;20046;-75
2021/12/07 02:59:04;;;;;;;53.40;18.83;;;;;;;;;;8454408;28;20047;-76
2021/12/07 03:03:10;;;;;;;78.85;27.45;;;;;;;;;;8460041;28;20043;-74
2021/12/07 03:07:20;;;;;;;69.00;21.25;;;;;;;;;;8452000;28;20471;-75
2021/12/07 03:28:50;;;;;;;92.32;27.02;;;;;;;;;;8462826;28;20040;-77
2021/12/07 03:32:53;;;;;;;85.00;23.98;;;;;;;;;;8459513;28;20055;-77
2021/12/07 03:36:55;;;;;;;92.85;28.63;;;;;;;;;;8461722;28;20047;-76
2021/12/07 03:40:58;;;;;;;84.70;23.52;;;;;;;;;;8462572;28;20055;-77
2021/12/07 03:45:03;;;;;;;77.78;23.40;;;;;;;;;;8466219;28;20068;-74
2021/12/07 03:49:06;;;;;;;81.68;20.02;;;;;;;;;;8466531;28;20093;-74
2021/12/07 03:53:10;;;;;;;86.57;27.67;;;;;;;;;;8465459;28;20055;-75
2021/12/07 03:57:14;;;;;;;70.60;22.05;;;;;;;;;;8465799;28;20047;-74
2021/12/07 04:01:23;;;;;;;93.75;26.70;;;;;;;;;;8465265;28;20075;-74
2021/12/07 04:05:26;;;;;;;64.40;19.73;;;;;;;;;;8465637;28;20051;-74
2021/12/07 04:09:30;;;;;;;52.85;18.65;;;;;;;;;;8464378;28;20040;-74
2021/12/07 04:13:33;;;;;;;71.43;24.02;;;;;;;;;;8464932;28;20054;-78
2021/12/07 04:17:38;;;;;;;90.43;28.65;;;;;;;;;;8464789;28;20052;-76
2021/12/07 04:21:41;;;;;;;72.75;22.25;;;;;;;;;;8464663;28;20043;-77
2021/12/07 04:25:43;;;;;;;71.93;24.05;;;;;;;;;;8464587;28;20044;-76
2021/12/07 04:29:46;;;;;;;91.97;27.25;;;;;;;;;;8464345;28;20059;-77
2021/12/07 04:33:51;;;;;;;64.20;21.52;;;;;;;;;;8464296;28;20135;-74
2021/12/07 04:37:54;;;;;;;86.63;26.73;;;;;;;;;;8464182;28;20050;-75
2021/12/07 04:41:57;;;;;;;68.65;20.75;;;;;;;;;;8463925;28;20050;-75
2021/12/07 04:46:08;;;;;;;86.10;25.95;;;;;;;;;;8464558;28;20514;-77
2021/12/07 04:50:37;;;;;;;63.08;21.45;;;;;;;;;;8464055;28;20403;-76
2021/12/07 04:59:01;;;;;;;56.15;19.00;;;;;;;;;;8463895;28;20142;-76
2021/12/07 05:03:09;;;;;;;59.75;19.70;;;;;;;;;;8463775;28;20047;-77
2021/12/07 05:07:22;;;;;;;60.40;19.80;;;;;;;;;;8463667;28;20043;-77
2021/12/07 05:11:33;;;;;;;55.72;19.85;;;;;;;;;;8463619;28;20047;-77
2021/12/07 05:16:00;;;;;;;56.67;18.93;;;;;;;;;;8463691;28;20136;-77
2021/12/07 05:24:26;;;;;;;63.97;24.02;;;;;;;;;;8463782;28;20078;-74
2021/12/07 05:41:31;;;;;;;57.08;20.88;;;;;;;;;;8463286;28;20418;-77
2021/12/07 05:45:36;;;;;;;45.97;18.20;;;;;;;;;;8463587;28;20052;-76
2021/12/07 05:49:39;;;;;;;52.75;17.55;;;;;;;;;;8463345;28;20048;-77
2021/12/07 05:53:42;;;;;;;53.95;18.63;;;;;;;;;;8462848;28;20066;-76
2021/12/07 05:57:47;;;;;;;45.72;17.77;;;;;;;;;;8462921;28;20108;-76
2021/12/07 06:01:50;;;;;;;49.40;17.15;;;;;;;;;;8465797;28;20051;-78
2021/12/07 06:05:54;;;;;;;58.20;22.77;;;;;;;;;;8469444;28;20494;-75
2021/12/07 06:09:57;;;;;;;49.97;20.77;;;;;;;;;;8468813;28;20067;-74
2021/12/07 06:14:01;;;;;;;59.80;21.48;;;;;;;;;;8468693;28;20043;-78
2021/12/07 06:18:05;;;;;;;42.38;13.75;;;;;;;;;;8469072;28;20498;-75
2021/12/07 06:22:09;;;;;;;55.83;18.73;;;;;;;;;;8468449;28;20040;-76
2021/12/07 06:26:12;;;;;;;96.40;30.02;;;;;;;;;;8468773;28;20403;-76
2021/12/07 06:30:16;;;;;;;39.65;16.40;;;;;;;;;;8468607;28;20043;-75
2021/12/07 06:34:20;;;;;;;67.45;27.40;;;;;;;;;;8468057;28;20055;-74
2021/12/07 06:38:23;;;;;;;62.28;23.15;;;;;;;;;;8468037;28;20513;-75
2021/12/07 06:42:26;;;;;;;128.50;35.83;;;;;;;;;;8467197;28;20056;-75
2021/12/07 06:46:30;;;;;;;58.72;22.15;;;;;;;;;;8466699;28;20044;-77
2021/12/07 06:50:33;;;;;;;205.75;46.28;;;;;;;;;;8467443;28;20052;-74
2021/12/07 06:54:36;;;;;;;100.47;36.83;;;;;;;;;;8467327;28;20086;-76
2021/12/07 06:58:39;;;;;;;171.35;39.58;;;;;;;;;;8466436;28;20043;-76
2021/12/07 07:02:44;;;;;;;130.05;34.50;;;;;;;;;;8454720;28;20048;-77
2021/12/07 07:06:50;;;;;;;122.57;43.65;;;;;;;;;;8467304;28;20104;-74
2021/12/07 07:10:53;;;;;;;70.15;24.55;;;;;;;;;;8463533;28;20093;-76
2021/12/07 07:14:56;;;;;;;153.30;37.90;;;;;;;;;;8465214;28;20163;-73
2021/12/07 07:19:01;;;;;;;93.18;24.98;;;;;;;;;;8464849;28;20055;-75
2021/12/07 07:23:04;;;;;;;67.57;22.42;;;;;;;;;;8458600;28;20043;-77
2021/12/07 07:27:07;;;;;;;76.45;23.95;;;;;;;;;;8434335;28;20089;-75
2021/12/07 07:31:11;;;;;;;131.90;34.00;;;;;;;;;;8466565;28;20376;-75
2021/12/07 07:35:17;;;;;;;66.05;20.98;;;;;;;;;;8462734;28;20471;-77
2021/12/07 07:39:20;;;;;;;79.60;26.50;;;;;;;;;;8466502;28;20498;-76
2021/12/07 07:43:23;;;;;;;87.13;23.63;;;;;;;;;;8465679;28;20531;-75
2021/12/07 07:47:27;;;;;;;66.75;24.33;;;;;;;;;;8466110;28;20055;-75
2021/12/07 07:51:31;;;;;;;71.15;26.92;;;;;;;;;;8465797;28;20463;-76
2021/12/07 07:55:35;;;;;;;62.28;20.20;;;;;;;;;;8465672;28;20067;-77
2021/12/07 07:59:39;;;;;;;79.85;26.58;;;;;;;;;;8465243;28;20467;-76
2021/12/07 08:03:42;;;;;;;49.28;16.70;;;;;;;;;;8465698;28;20592;-76
2021/12/07 08:07:47;;;;;;;69.45;22.92;;;;;;;;;;8465336;28;20048;-77
2021/12/07 08:11:50;;;;;;;51.28;19.38;;;;;;;;;;8464919;28;20050;-75
2021/12/07 08:15:53;;;;;;;56.28;21.70;;;;;;;;;;8465399;28;20101;-76
2021/12/07 08:19:56;;;;;;;43.20;17.05;;;;;;;;;;8463894;28;20051;-76
2021/12/07 08:24:00;;;;;;;49.25;19.88;;;;;;;;;;8464175;28;20388;-74
2021/12/07 08:28:03;;;;;;;50.25;17.27;;;;;;;;;;8464371;28;20048;-74
2021/12/07 08:32:07;;;;;;;43.72;16.08;;;;;;;;;;8464762;28;20075;-74
2021/12/07 08:36:10;;;;;;;43.95;17.17;;;;;;;;;;8464332;28;20058;-74
2021/12/07 08:40:17;;;;;;;48.70;17.58;;;;;;;;;;8463901;28;20104;-74
2021/12/07 08:44:20;;;;;;;34.63;15.07;;;;;;;;;;8462923;28;20070;-75
2021/12/07 08:48:26;;;;;;;35.42;15.82;;;;;;;;;;8461752;28;20047;-76
2021/12/07 08:52:29;;;;;;;45.25;17.23;;;;;;;;;;8462562;28;20047;-75
2021/12/07 09:00:53;;;;;;;37.67;16.80;;;;;;;;;;8459935;28;20047;-75
2021/12/07 09:04:56;;;;;;;40.67;15.40;;;;;;;;;;8455512;28;20043;-75
2021/12/07 09:09:00;;;;;;;38.47;17.63;;;;;;;;;;8461206;28;20527;-75
2021/12/07 09:13:07;;;;;;;41.33;17.27;;;;;;;;;;8460992;28;20101;-74
2021/12/07 09:17:13;;;;;;;35.38;15.10;;;;;;;;;;8463452;28;20048;-74
2021/12/07 09:21:17;;;;;;;31.05;13.82;;;;;;;;;;8463804;28;20082;-77
2021/12/07 09:25:20;;;;;;;40.42;14.93;;;;;;;;;;8463462;28;20043;-74
2021/12/07 09:29:25;;;;;;;41.90;16.42;;;;;;;;;;8463865;28;20376;-76
2021/12/07 09:33:30;;;;;;;36.40;15.63;;;;;;;;;;8463424;28;20125;-76
2021/12/07 09:37:33;;;;;;;33.22;13.05;;;;;;;;;;8468739;28;20487;-75
2021/12/07 09:41:37;;;;;;;79.93;31.98;;;;;;;;;;8469827;28;20116;-73
2021/12/07 09:45:43;;;;;;;36.05;16.90;;;;;;;;;;8470158;28;20527;-76
2021/12/07 09:49:46;;;;;;;34.35;13.55;;;;;;;;;;8469568;28;20054;-75
2021/12/07 09:53:52;;;;;;;29.98;13.45;;;;;;;;;;8469282;28;20143;-75
2021/12/07 09:57:55;;;;;;;80.05;27.02;;;;;;;;;;8469827;28;20048;-74
2021/12/07 10:02:03;;;;;;;50.88;21.15;;;;;;;;;;8469541;28;20051;-74
2021/12/07 10:06:07;;;;;;;42.00;15.43;;;;;;;;;;8469024;28;20444;-74
2021/12/07 10:10:20;;;;;;;39.33;16.48;;;;;;;;;;8468860;28;20044;-76
2021/12/07 10:14:23;;;;;;;50.08;18.02;;;;;;;;;;8468771;28;20043;-75
2021/12/07 10:18:31;;;;;;;66.25;25.70;;;;;;;;;;8469126;28;20520;-76
2021/12/07 10:22:35;;;;;;;31.27;12.68;;;;;;;;;;8469279;28;20410;-74
2021/12/07 10:26:40;;;;;;;82.90;32.38;;;;;;;;;;8468387;28;20048;-74
2021/12/07 10:30:44;;;;;;;72.03;27.77;;;;;;;;;;8468152;28;20097;-75
2021/12/07 10:34:48;;;;;;;80.18;28.23;;;;;;;;;;8468338;28;20043;-76
2021/12/07 10:38:58;;;;;;;68.55;27.38;;;;;;;;;;8467988;28;20088;-73
2021/12/07 10:43:01;;;;;;;42.83;18.13;;;;;;;;;;8467682;28;20055;-74
2021/12/07 10:47:05;;;;;;;40.78;17.52;;;;;;;;;;8466960;28;20044;-77
2021/12/07 10:51:12;;;;;;;53.10;19.25;;;;;;;;;;8467547;28;20055;-74
2021/12/07 10:55:18;;;;;;;44.78;22.02;;;;;;;;;;8467512;28;20048;-75
2021/12/07 10:59:20;;;;;;;92.72;27.60;;;;;;;;;;8464235;28;20035;-76
2021/12/07 11:03:25;;;;;;;115.43;40.58;;;;;;;;;;8450190;28;20040;-75
2021/12/07 11:07:31;;;;;;;57.05;22.65;;;;;;;;;;8459241;28;20429;-75
2021/12/07 11:11:34;;;;;;;45.75;17.10;;;;;;;;;;8465621;28;20043;-76
2021/12/07 11:15:47;;;;;;;49.88;18.30;;;;;;;;;;8466067;28;20039;-76
2021/12/07 11:19:51;;;;;;;53.05;18.70;;;;;;;;;;8465572;28;20050;-74
2021/12/07 11:23:58;;;;;;;56.92;21.73;;;;;;;;;;8465173;28;20039;-75
2021/12/07 11:32:22;;;;;;;52.38;20.70;;;;;;;;;;8465077;28;20043;-75
2021/12/07 11:36:28;;;;;;;50.53;19.33;;;;;;;;;;8465595;28;20399;-76
2021/12/07 11:40:36;;;;;;;54.88;21.02;;;;;;;;;;8465184;28;20491;-76
2021/12/07 11:44:49;;;;;;;90.57;29.80;;;;;;;;;;8454437;28;20180;-74
2021/12/07 11:49:09;;;;;;;70.00;25.10;;;;;;;;;;8465130;28;20055;-76
2021/12/07 11:53:16;;;;;;;48.15;17.17;;;;;;;;;;8464682;28;20061;-75
2021/12/07 11:57:21;;;;;;;53.65;18.20;;;;;;;;;;8464010;28;20085;-73
2021/12/07 12:01:24;;;;;;;45.25;15.85;;;;;;;;;;8463175;28;20058;-75
2021/12/07 12:05:27;;;;;;;40.92;16.00;;;;;;;;;;8464516;28;20127;-75
2021/12/07 12:09:30;;;;;;;51.70;21.65;;;;;;;;;;8464166;28;20480;-74
2021/12/07 12:13:42;;;;;;;46.95;16.73;;;;;;;;;;8463436;28;20040;-75
2021/12/07 12:18:00;;;;;;;61.10;27.42;;;;;;;;;;8463345;28;20100;-77
2021/12/07 12:22:16;;;;;;;72.20;29.25;;;;;;;;;;8463622;28;20461;-76
2021/12/07 12:26:23;;;;;;;51.55;23.92;;;;;;;;;;8463091;28;20419;-74
2021/12/07 12:30:31;;;;;;;35.97;15.93;;;;;;;;;;8463384;28;20047;-73
2021/12/07 12:34:36;;;;;;;54.80;25.35;;;;;;;;;;8463065;28;20047;-73
2021/12/07 12:38:57;;;;;;;43.33;16.88;;;;;;;;;;8463181;28;20118;-75
2021/12/07 12:43:03;;;;;;;50.28;18.23;;;;;;;;;;8460814;28;20490;-74
2021/12/07 12:47:07;;;;;;;66.85;21.35;;;;;;;;;;8462430;28;20135;-75
2021/12/07 12:51:11;;;;;;;66.55;27.63;;;;;;;;;;8462743;28;20048;-76
2021/12/07 12:55:37;;;;;;;47.35;19.38;;;;;;;;;;8462498;28;20438;-74
2021/12/07 12:59:43;;;;;;;64.35;29.48;;;;;;;;;;8462719;28;20414;-74
2021/12/07 13:04:05;;;;;;;57.42;28.20;;;;;;;;;;8448318;28;20495;-75
2021/12/07 13:08:14;;;;;;;54.40;20.00;;;;;;;;;;8462662;28;20047;-75
2021/12/07 13:12:20;;;;;;;51.38;23.58;;;;;;;;;;8467685;28;20525;-75
2021/12/07 13:16:24;;;;;;;59.38;25.55;;;;;;;;;;8470039;28;20044;-74
2021/12/07 13:20:35;;;;;;;62.55;31.00;;;;;;;;;;8469923;28;20381;-73
2021/12/07 13:24:42;;;;;;;39.80;19.45;;;;;;;;;;8469053;28;20074;-76
2021/12/07 13:29:01;;;;;;;43.53;21.05;;;;;;;;;;8469064;28;20059;-75
2021/12/07 13:33:18;;;;;;;37.15;15.57;;;;;;;;;;8469488;28;20055;-74
2021/12/07 13:37:23;;;;;;;57.20;23.80;;;;;;;;;;8468633;28;20048;-74
2021/12/07 13:41:26;;;;;;;32.88;14.35;;;;;;;;;;8468470;28;20513;-77
2021/12/07 13:45:29;;;;;;;42.88;19.40;;;;;;;;;;8469241;28;20079;-75
2021/12/07 13:49:34;;;;;;;54.25;24.30;;;;;;;;;;8468929;28;20479;-75
2021/12/07 13:53:43;;;;;;;33.15;14.35;;;;;;;;;;8468131;28;20078;-75
2021/12/07 13:57:51;;;;;;;39.50;20.38;;;;;;;;;;8468111;28;20048;-75
2021/12/07 14:01:59;;;;;;;39.05;16.55;;;;;;;;;;8467944;28;20449;-76
2021/12/07 14:06:03;;;;;;;77.10;30.20;;;;;;;;;;8468121;28;20044;-76
2021/12/07 14:10:11;;;;;;;77.70;28.23;;;;;;;;;;8467501;28;20047;-76
2021/12/07 14:14:16;;;;;;;43.13;18.92;;;;;;;;;;8467662;28;20054;-74
2021/12/07 14:18:23;;;;;;;35.42;14.45;;;;;;;;;;8468066;28;20122;-74
2021/12/07 14:22:26;;;;;;;29.00;13.20;;;;;;;;;;8466397;28;20039;-75
2021/12/07 14:26:36;;;;;;;55.63;18.77;;;;;;;;;;8463853;28;20054;-75
2021/12/07 14:30:39;;;;;;;36.78;15.10;;;;;;;;;;8453891;28;20093;-74
2021/12/07 14:34:45;;;;;;;38.40;17.67;;;;;;;;;;8467056;28;20498;-76
2021/12/07 14:38:49;;;;;;;238.45;82.20;;;;;;;;;;8466794;28;20051;-76
2021/12/07 14:42:54;;;;;;;86.65;34.30;;;;;;;;;;8466902;28;20494;-74
2021/12/07 14:47:00;;;;;;;45.95;17.95;;;;;;;;;;8466725;28;20426;-75
2021/12/07 14:51:07;;;;;;;48.63;20.13;;;;;;;;;;8465812;28;20043;-73
2021/12/07 14:55:11;;;;;;;50.00;18.67;;;;;;;;;;8466408;28;20093;-75
2021/12/07 14:59:17;;;;;;;41.47;17.60;;;;;;;;;;8458995;28;20048;-74
2021/12/07 15:03:20;;;;;;;81.28;27.55;;;;;;;;;;8452639;28;20051;-74
2021/12/07 15:07:31;;;;;;;48.58;18.50;;;;;;;;;;8465693;28;20487;-74
2021/12/07 15:11:37;;;;;;;78.00;29.13;;;;;;;;;;8465906;28;20134;-77
2021/12/07 15:15:42;;;;;;;62.05;24.38;;;;;;;;;;8465895;28;20082;-76
2021/12/07 15:19:45;;;;;;;39.83;16.95;;;;;;;;;;8465814;28;20043;-75
2021/12/07 15:23:49;;;;;;;38.05;14.07;;;;;;;;;;8465923;28;20048;-74
2021/12/07 15:27:54;;;;;;;47.42;20.70;;;;;;;;;;8466039;28;20550;-76
2021/12/07 15:32:01;;;;;;;98.78;35.75;;;;;;;;;;8465290;28;20051;-75
2021/12/07 15:36:18;;;;;;;173.82;54.17;;;;;;;;;;8464638;28;20053;-73
2021/12/07 15:40:24;;;;;;;94.28;31.85;;;;;;;;;;8464816;28;20051;-74
2021/12/07 15:44:32;;;;;;;41.13;18.10;;;;;;;;;;8445227;28;20050;-75
2021/12/07 15:48:36;;;;;;;87.88;31.55;;;;;;;;;;8455717;28;20395;-73
2021/12/07 15:52:41;;;;;;;44.25;17.85;;;;;;;;;;8459214;28;20521;-77
2021/12/07 15:56:45;;;;;;;113.80;43.88;;;;;;;;;;8459064;28;20101;-74
2021/12/07 16:00:51;;;;;;;95.38;31.70;;;;;;;;;;8459423;28;20372;-73
2021/12/07 16:05:07;;;;;;;56.90;23.70;;;;;;;;;;8460298;28;20064;-74
2021/12/07 16:09:18;;;;;;;70.95;28.98;;;;;;;;;;8461860;28;20051;-74
2021/12/07 16:13:26;;;;;;;104.40;39.60;;;;;;;;;;8456748;28;20086;-77
2021/12/07 16:17:30;;;;;;;40.08;17.58;;;;;;;;;;8460505;28;20471;-73
2021/12/07 16:21:35;;;;;;;167.43;48.03;;;;;;;;;;8458266;28;20037;-75
2021/12/07 16:25:39;;;;;;;92.65;33.05;;;;;;;;;;8462212;28;20043;-75
2021/12/07 16:29:44;;;;;;;47.45;16.67;;;;;;;;;;8458831;28;20181;-75
2021/12/07 16:33:50;;;;;;;216.23;55.53;;;;;;;;;;8451976;28;20048;-74
2021/12/07 16:38:00;;;;;;;107.85;37.80;;;;;;;;;;8463084;28;20078;-76
2021/12/07 16:42:11;;;;;;;210.35;60.45;;;;;;;;;;8459318;28;20138;-75
2021/12/07 16:46:15;;;;;;;280.98;79.90;;;;;;;;;;8461330;28;20039;-74
2021/12/07 16:50:21;;;;;;;41.55;17.27;;;;;;;;;;8463915;28;20091;-76
2021/12/07 16:54:44;;;;;;;49.80;21.58;;;;;;;;;;8462742;28;20471;-77
2021/12/07 16:58:48;;;;;;;52.75;21.27;;;;;;;;;;8462055;28;20443;-74
2021/12/07 17:02:53;;;;;;;108.28;34.42;;;;;;;;;;8461115;28;20054;-76
2021/12/07 17:06:59;;;;;;;101.78;32.40;;;;;;;;;;8462611;28;20042;-75
2021/12/07 17:11:06;;;;;;;258.63;63.28;;;;;;;;;;8462399;28;20096;-75
2021/12/07 17:15:13;;;;;;;141.48;32.95;;;;;;;;;;8461924;28;20483;-75
2021/12/07 17:19:20;;;;;;;27.35;11.85;;;;;;;;;;8444004;28;20097;-76
2021/12/07 17:23:24;;;;;;;129.38;39.55;;;;;;;;;;8445794;28;20044;-76
2021/12/07 17:27:29;;;;;;;40.15;14.02;;;;;;;;;;8446541;28;20587;-75
2021/12/07 17:31:34;;;;;;;99.97;30.00;;;;;;;;;;8445904;28;20108;-76
2021/12/07 17:35:37;;;;;;;95.47;29.52;;;;;;;;;;8445720;28;20124;-77
2021/12/07 17:39:51;;;;;;;49.50;19.90;;;;;;;;;;8445578;28;20051;-75
2021/12/07 17:44:02;;;;;;;104.72;41.40;;;;;;;;;;8412246;28;20449;-77
2021/12/07 17:48:08;;;;;;;249.90;75.20;;;;;;;;;;8406717;28;20075;-76
2021/12/07 17:52:12;;;;;;;63.40;22.67;;;;;;;;;;8394155;28;20051;-76
2021/12/07 17:56:16;;;;;;;83.47;29.98;;;;;;;;;;8396175;28;20717;-75
2021/12/07 18:00:25;;;;;;;75.32;27.40;;;;;;;;;;8401137;28;20090;-77
2021/12/07 18:04:29;;;;;;;297.88;105.03;;;;;;;;;;8401031;28;20044;-77
2021/12/07 18:08:32;;;;;;;88.15;33.72;;;;;;;;;;8384146;28;20085;-75
2021/12/07 18:12:35;;;;;;;125.10;41.25;;;;;;;;;;8401530;28;20045;-74
2021/12/07 18:16:51;;;;;;;186.70;56.58;;;;;;;;;;8401551;28;20131;-76
2021/12/07 18:20:55;;;;;;;35.65;16.77;;;;;;;;;;8401511;28;20044;-76
2021/12/07 18:24:57;;;;;;;48.13;19.23;;;;;;;;;;8405109;28;20036;-75
2021/12/07 18:29:01;;;;;;;172.45;53.22;;;;;;;;;;8434665;28;20051;-76
2021/12/07 18:33:09;;;;;;;44.33;17.70;;;;;;;;;;8435325;28;20047;-75
2021/12/07 18:37:13;;;;;;;53.92;23.42;;;;;;;;;;8434901;28;20490;-74
2021/12/07 18:41:22;;;;;;;93.47;29.27;;;;;;;;;;8444919;28;20058;-75
2021/12/07 18:45:26;;;;;;;39.35;13.38;;;;;;;;;;8467926;28;20495;-75
2021/12/07 18:49:31;;;;;;;60.25;20.35;;;;;;;;;;8467730;28;20456;-75
2021/12/07 18:53:35;;;;;;;40.47;15.38;;;;;;;;;;8468121;28;20134;-76
2021/12/07 18:57:38;;;;;;;95.35;31.52;;;;;;;;;;8467555;28;20092;-76
2021/12/07 19:01:45;;;;;;;56.10;25.27;;;;;;;;;;8467314;28;20071;-76
2021/12/07 19:05:52;;;;;;;108.63;38.30;;;;;;;;;;8467297;28;20047;-77
2021/12/07 19:09:55;;;;;;;98.53;33.38;;;;;;;;;;8466528;28;20047;-76
2021/12/07 19:14:02;;;;;;;54.70;22.67;;;;;;;;;;8466870;28;20051;-77
2021/12/07 19:18:06;;;;;;;99.35;36.65;;;;;;;;;;8467105;28;20044;-77
2021/12/07 19:22:11;;;;;;;79.25;31.23;;;;;;;;;;8466726;28;20044;-73
2021/12/07 19:26:22;;;;;;;98.47;36.92;;;;;;;;;;8467032;28;20040;-77
2021/12/07 19:30:29;;;;;;;49.40;20.55;;;;;;;;;;8466359;28;20402;-76
2021/12/07 19:34:33;;;;;;;127.13;40.05;;;;;;;;;;8466142;28;20048;-77
2021/12/07 19:38:40;;;;;;;31.60;14.95;;;;;;;;;;8466442;28;20059;-74
2021/12/07 19:42:44;;;;;;;29.48;13.75;;;;;;;;;;8465994;28;20077;-75
2021/12/07 19:46:48;;;;;;;54.00;24.27;;;;;;;;;;8448068;28;20055;-75
2021/12/07 19:50:55;;;;;;;46.08;18.45;;;;;;;;;;8465773;28;20499;-75
2021/12/07 19:55:01;;;;;;;35.47;14.20;;;;;;;;;;8464946;28;20058;-77
2021/12/07 19:59:07;;;;;;;42.97;25.63;;;;;;;;;;8435152;28;20055;-77
2021/12/07 20:03:11;;;;;;;37.65;15.30;;;;;;;;;;8437182;28;20403;-75
2021/12/07 20:07:15;;;;;;;46.92;17.38;;;;;;;;;;8452283;28;20044;-73
2021/12/07 20:11:23;;;;;;;62.03;22.88;;;;;;;;;;8443412;28;20097;-76
2021/12/07 20:15:27;;;;;;;73.20;28.95;;;;;;;;;;8428418;28;20127;-74
2021/12/07 20:19:33;;;;;;;25.15;12.45;;;;;;;;;;8429657;28;20052;-76
2021/12/07 20:23:43;;;;;;;25.83;11.65;;;;;;;;;;8429713;28;20040;-76
2021/12/07 20:27:47;;;;;;;28.10;12.60;;;;;;;;;;8430895;28;20052;-76
2021/12/07 20:31:51;;;;;;;26.77;12.40;;;;;;;;;;8431166;28;20048;-74
2021/12/07 20:35:54;;;;;;;137.10;34.55;;;;;;;;;;8430706;28;20055;-77
2021/12/07 20:39:58;;;;;;;80.55;28.88;;;;;;;;;;8430708;28;20055;-76
2021/12/07 20:44:03;;;;;;;68.13;23.75;;;;;;;;;;8430398;28;20056;-75
2021/12/07 20:48:06;;;;;;;65.75;24.52;;;;;;;;;;8430593;28;20048;-76
2021/12/07 20:52:09;;;;;;;50.58;15.82;;;;;;;;;;8430914;28;20054;-77
2021/12/07 20:56:16;;;;;;;38.92;18.48;;;;;;;;;;8430803;28;20546;-76
2021/12/07 21:00:21;;;;;;;54.28;16.48;;;;;;;;;;8430382;28;20040;-77
2021/12/07 21:04:24;;;;;;;32.50;14.40;;;;;;;;;;8430129;28;20055;-74
2021/12/07 21:08:30;;;;;;;43.55;21.55;;;;;;;;;;8430068;28;20048;-74
2021/12/07 21:12:33;;;;;;;45.13;23.35;;;;;;;;;;8430664;28;20605;-75
2021/12/07 21:16:38;;;;;;;78.32;27.80;;;;;;;;;;8430414;28;20523;-74
2021/12/07 21:20:41;;;;;;;103.28;29.58;;;;;;;;;;8429883;28;20044;-74
2021/12/07 21:24:45;;;;;;;46.75;21.40;;;;;;;;;;8429868;28;20112;-76
2021/12/07 21:28:49;;;;;;;36.53;16.38;;;;;;;;;;8430281;28;20051;-75
2021/12/07 21:32:54;;;;;;;36.33;16.45;;;;;;;;;;8434003;28;20052;-75
2021/12/07 21:36:58;;;;;;;26.15;12.60;;;;;;;;;;8437185;28;20437;-77
2021/12/07 21:41:01;;;;;;;26.40;11.98;;;;;;;;;;8436068;28;20051;-75
2021/12/07 21:45:07;;;;;;;23.23;10.18;;;;;;;;;;8436115;28;20055;-75
2021/12/07 21:49:14;;;;;;;35.85;15.13;;;;;;;;;;8436033;28;20082;-76
2021/12/07 21:53:18;;;;;;;363.27;110.25;;;;;;;;;;8435783;28;20063;-73
2021/12/07 21:57:21;;;;;;;298.75;83.35;;;;;;;;;;8435984;28;20119;-76
2021/12/07 22:01:25;;;;;;;534.80;203.88;;;;;;;;;;8436127;28;20482;-75
2021/12/07 22:05:29;;;;;;;153.82;44.28;;;;;;;;;;8436071;28;20044;-77
2021/12/07 22:09:32;;;;;;;148.10;35.08;;;;;;;;;;8435404;28;20048;-77
2021/12/07 22:13:35;;;;;;;39.83;17.92;;;;;;;;;;8435207;28;20147;-77
2021/12/07 22:17:39;;;;;;;287.17;75.35;;;;;;;;;;8435128;28;20048;-75
2021/12/07 22:21:44;;;;;;;268.92;65.95;;;;;;;;;;8435428;28;20040;-76
2021/12/07 22:25:48;;;;;;;95.15;32.90;;;;;;;;;;8435409;28;20052;-76
2021/12/07 22:29:51;;;;;;;178.57;41.30;;;;;;;;;;8434886;28;20569;-74
2021/12/07 22:33:54;;;;;;;341.00;84.05;;;;;;;;;;8435003;28;20063;-74
2021/12/07 22:37:58;;;;;;;101.28;35.33;;;;;;;;;;8434478;28;20040;-76
2021/12/07 22:42:03;;;;;;;57.97;17.90;;;;;;;;;;8433728;28;20052;-77
2021/12/07 22:46:06;;;;;;;67.55;19.20;;;;;;;;;;8434554;28;20040;-77
2021/12/07 22:50:13;;;;;;;42.42;13.35;;;;;;;;;;8434083;28;20093;-74
2021/12/07 22:54:20;;;;;;;25.58;12.85;;;;;;;;;;8433986;28;20051;-77
2021/12/07 22:58:25;;;;;;;54.38;22.85;;;;;;;;;;8434261;28;20041;-74
2021/12/07 23:02:28;;;;;;;49.40;17.65;;;;;;;;;;8433733;28;20051;-77
2021/12/07 23:06:31;;;;;;;50.88;23.60;;;;;;;;;;8434278;28;20545;-77
2021/12/07 23:10:36;;;;;;;59.85;24.50;;;;;;;;;;8433496;28;20075;-76
2021/12/07 23:14:40;;;;;;;37.45;18.08;;;;;;;;;;8433188;28;20055;-76
2021/12/07 23:18:43;;;;;;;34.75;15.80;;;;;;;;;;8433099;28;20055;-74
2021/12/07 23:22:50;;;;;;;50.75;22.50;;;;;;;;;;8433055;28;20514;-75
2021/12/07 23:26:55;;;;;;;50.58;20.10;;;;;;;;;;8433484;28;20135;-76
2021/12/07 23:31:02;;;;;;;84.28;34.53;;;;;;;;;;8433180;28;20044;-77
2021/12/07 23:35:06;;;;;;;57.88;23.45;;;;;;;;;;8432906;28;20135;-76
2021/12/07 23:39:10;;;;;;;39.92;17.45;;;;;;;;;;8433037;28;20449;-76
2021/12/07 23:43:16;;;;;;;44.88;18.75;;;;;;;;;;8432357;28;20071;-75
2021/12/07 23:47:19;;;;;;;48.88;19.88;;;;;;;;;;8432769;28;20048;-76
2021/12/07 23:51:24;;;;;;;48.95;22.85;;;;;;;;;;8432258;28;20048;-77
2021/12/07 23:55:27;;;;;;;53.28;18.67;;;;;;;;;;8431453;28;20063;-76
2021/12/07 23:59:32;;;;;;;50.47;22.80;;;;;;;;;;8432658;28;20510;-76
